Time;durP1;ratioP1;P1;durP2;ratioP2;P2;SDS_P1;SDS_P2;PMS_P1;PMS_P2;Temp;Humidity;BMP_temperature;BMP_pressure;BME280_temperature;BME280_humidity;BME280_pressure;Samples;Min_cycle;Max_cycle;Signal;HPM_P1;HPM_P2
2023/03/12 00:01:14;;;;;;;3.15;1.90;;;2.20;99.90;;;;;;5032778;28;20242;-83
2023/03/12 00:03:44;;;;;;;1.40;1.25;;;2.20;99.90;;;;;;5032209;28;20208;-82
2023/03/12 00:06:13;;;;;;;2.33;1.87;;;2.10;99.90;;;;;;5032842;28;20225;-82
2023/03/12 00:08:41;;;;;;;1.65;1.55;;;2.10;99.90;;;;;;5032723;28;20221;-82
2023/03/12 00:11:11;;;;;;;1.58;1.48;;;2.10;99.90;;;;;;5033190;28;20226;-82
2023/03/12 00:13:40;;;;;;;2.00;1.85;;;2.10;99.90;;;;;;5034853;28;20213;-82
2023/03/12 00:16:10;;;;;;;1.55;1.48;;;2.10;99.90;;;;;;5035029;28;20249;-83
2023/03/12 00:18:39;;;;;;;5.05;1.52;;;2.10;99.90;;;;;;5034599;28;20230;-82
2023/03/12 00:21:10;;;;;;;2.03;1.83;;;2.10;99.90;;;;;;5034902;28;20237;-83
2023/03/12 00:23:38;;;;;;;1.50;1.40;;;2.00;99.90;;;;;;5035212;28;20195;-82
2023/03/12 00:26:08;;;;;;;1.63;1.52;;;2.00;99.90;;;;;;5034858;28;20206;-82
2023/03/12 00:28:36;;;;;;;1.70;1.60;;;2.00;99.90;;;;;;5034243;28;20225;-82
2023/03/12 00:31:14;;;;;;;1.73;1.63;;;2.00;99.90;;;;;;5034661;28;20241;-82
2023/03/12 00:33:42;;;;;;;1.92;1.80;;;2.00;99.90;;;;;;5034756;28;20202;-83
2023/03/12 00:36:12;;;;;;;1.60;1.50;;;2.00;99.90;;;;;;5035123;28;20209;-81
2023/03/12 00:38:41;;;;;;;1.75;1.65;;;2.00;99.90;;;;;;5034528;28;20285;-83
2023/03/12 00:41:09;;;;;;;2.05;1.30;;;2.00;99.90;;;;;;5033860;28;20234;-82
2023/03/12 00:43:38;;;;;;;1.45;1.35;;;1.90;99.90;;;;;;5034519;28;20233;-83
2023/03/12 00:46:06;;;;;;;0.98;0.98;;;1.90;99.90;;;;;;5034595;28;20212;-83
2023/03/12 00:48:34;;;;;;;1.77;1.48;;;1.90;99.90;;;;;;5033598;28;20210;-82
2023/03/12 00:51:02;;;;;;;3.78;2.03;;;1.90;99.90;;;;;;5034256;28;20222;-83
2023/03/12 00:53:32;;;;;;;2.45;1.38;;;1.90;99.90;;;;;;5033781;28;20210;-82
2023/03/12 00:56:00;;;;;;;1.23;1.15;;;1.90;99.90;;;;;;5034585;28;20213;-83
2023/03/12 00:58:29;;;;;;;1.73;1.63;;;1.90;99.90;;;;;;5033576;28;20214;-82
2023/03/12 01:00:57;;;;;;;1.00;1.00;;;1.90;99.90;;;;;;5034075;28;20226;-82
2023/03/12 01:03:26;;;;;;;2.88;1.88;;;1.90;99.90;;;;;;5034720;28;20281;-83
2023/03/12 01:05:54;;;;;;;1.60;1.50;;;1.90;99.90;;;;;;5034737;28;20213;-82
2023/03/12 01:08:24;;;;;;;1.55;1.45;;;1.80;99.90;;;;;;5033456;28;20214;-82
2023/03/12 01:10:53;;;;;;;1.25;1.20;;;1.80;99.90;;;;;;5034012;28;20234;-83
2023/03/12 01:13:22;;;;;;;1.88;1.75;;;1.80;99.90;;;;;;5033930;28;20203;-83
2023/03/12 01:15:50;;;;;;;1.38;1.27;;;1.80;99.90;;;;;;5033919;28;20221;-82
2023/03/12 01:18:18;;;;;;;1.67;1.45;;;1.80;99.90;;;;;;5033436;28;20221;-82
2023/03/12 01:20:47;;;;;;;2.03;1.60;;;1.70;99.90;;;;;;5033533;28;20229;-82
2023/03/12 01:23:16;;;;;;;1.65;1.55;;;1.80;99.90;;;;;;5033771;28;20206;-83
2023/03/12 01:25:46;;;;;;;2.87;1.80;;;1.80;99.90;;;;;;5033983;28;20209;-82
2023/03/12 01:28:16;;;;;;;1.92;1.75;;;1.70;99.90;;;;;;5033100;28;20211;-83
2023/03/12 01:30:44;;;;;;;1.70;1.60;;;1.70;99.90;;;;;;5033684;28;20238;-83
2023/03/12 01:33:13;;;;;;;2.37;1.53;;;1.70;99.90;;;;;;5033658;28;20198;-82
2023/03/12 01:35:42;;;;;;;1.80;1.70;;;1.70;99.90;;;;;;5033634;28;20214;-82
2023/03/12 01:38:13;;;;;;;1.63;1.52;;;1.70;99.90;;;;;;5033266;28;20206;-81
2023/03/12 01:40:42;;;;;;;5.72;2.45;;;1.70;99.90;;;;;;5033268;28;20241;-82
2023/03/12 01:43:25;;;;;;;5.40;2.20;;;1.70;99.90;;;;;;5033055;28;20222;-82
2023/03/12 01:46:14;;;;;;;1.37;1.27;;;1.60;99.90;;;;;;5033263;28;20206;-83
2023/03/12 01:48:48;;;;;;;1.40;1.30;;;1.60;99.90;;;;;;5032673;28;20206;-82
2023/03/12 01:51:18;;;;;;;1.77;1.65;;;1.60;99.90;;;;;;5033178;28;20230;-82
2023/03/12 01:53:50;;;;;;;16.27;1.70;;;1.60;99.90;;;;;;5033256;28;20214;-82
2023/03/12 01:56:20;;;;;;;1.50;1.40;;;1.60;99.90;;;;;;5033645;28;20209;-83
2023/03/12 01:58:55;;;;;;;2.15;1.65;;;1.60;99.90;;;;;;5032863;28;20237;-80
2023/03/12 02:01:24;;;;;;;2.43;1.70;;;1.60;99.90;;;;;;5033371;28;20271;-82
2023/03/12 02:03:55;;;;;;;2.87;1.53;;;1.60;99.90;;;;;;5032803;28;20284;-83
2023/03/12 02:06:29;;;;;;;3.90;1.90;;;1.60;99.90;;;;;;5032872;28;20214;-82
2023/03/12 02:08:59;;;;;;;4.40;1.60;;;1.50;99.90;;;;;;5032602;28;20240;-82
2023/03/12 02:11:27;;;;;;;1.73;1.63;;;1.60;99.90;;;;;;5033168;28;20257;-83
2023/03/12 02:13:57;;;;;;;1.70;1.60;;;1.50;99.90;;;;;;5033227;28;20275;-83
2023/03/12 02:16:26;;;;;;;1.40;1.30;;;1.50;99.90;;;;;;5033287;28;20293;-82
2023/03/12 02:18:56;;;;;;;2.40;1.93;;;1.50;99.90;;;;;;5032428;28;20217;-83
2023/03/12 02:21:28;;;;;;;2.72;1.70;;;1.50;99.90;;;;;;5032749;28;20289;-81
2023/03/12 02:24:03;;;;;;;2.93;1.43;;;1.50;99.90;;;;;;5033414;28;20237;-82
2023/03/12 02:26:35;;;;;;;3.33;1.52;;;1.50;99.90;;;;;;5032797;28;20209;-82
2023/03/12 02:29:04;;;;;;;1.58;1.48;;;1.40;99.90;;;;;;5032366;28;20248;-82
2023/03/12 02:31:38;;;;;;;1.63;1.52;;;1.40;99.90;;;;;;5032446;28;20214;-82
2023/03/12 02:34:07;;;;;;;2.07;1.60;;;1.40;99.90;;;;;;5032770;28;20214;-82
2023/03/12 02:36:36;;;;;;;6.00;1.92;;;1.40;99.90;;;;;;5032972;28;20289;-82
2023/03/12 02:39:04;;;;;;;1.50;1.40;;;1.40;99.90;;;;;;5032083;28;20245;-82
2023/03/12 02:41:37;;;;;;;1.60;1.50;;;1.40;99.90;;;;;;5032151;28;20234;-82
2023/03/12 02:44:10;;;;;;;3.57;1.97;;;1.40;99.90;;;;;;5032912;28;20389;-82
2023/03/12 02:46:41;;;;;;;1.65;1.55;;;1.40;99.90;;;;;;5032727;28;20300;-82
2023/03/12 02:49:12;;;;;;;1.77;1.60;;;1.40;99.90;;;;;;5032047;28;20266;-82
2023/03/12 02:51:40;;;;;;;1.88;1.77;;;1.30;99.90;;;;;;5032533;28;20205;-82
2023/03/12 02:54:10;;;;;;;1.30;1.20;;;1.40;99.90;;;;;;5032446;28;20207;-81
2023/03/12 02:56:40;;;;;;;3.05;1.95;;;1.40;99.90;;;;;;5032537;28;20293;-82
2023/03/12 02:59:10;;;;;;;1.48;1.38;;;1.40;99.90;;;;;;5032364;28;20206;-82
2023/03/12 03:01:38;;;;;;;1.70;1.30;;;1.40;99.90;;;;;;5032563;28;20341;-82
2023/03/12 03:04:09;;;;;;;3.38;1.60;;;1.30;99.90;;;;;;5032470;28;20203;-82
2023/03/12 03:06:39;;;;;;;1.67;1.58;;;1.40;99.90;;;;;;5032863;28;20195;-82
2023/03/12 03:09:07;;;;;;;1.52;1.42;;;1.40;99.90;;;;;;5031888;28;20306;-82
2023/03/12 03:11:35;;;;;;;2.03;1.37;;;1.30;99.90;;;;;;5032015;28;20227;-82
2023/03/12 03:14:05;;;;;;;1.75;1.60;;;1.30;99.90;;;;;;5032361;28;20298;-81
2023/03/12 03:16:34;;;;;;;1.83;1.73;;;1.30;99.90;;;;;;5034581;28;20206;-82
2023/03/12 03:19:06;;;;;;;2.42;1.98;;;1.30;99.90;;;;;;5035999;28;20293;-82
2023/03/12 03:21:35;;;;;;;2.15;1.33;;;1.30;99.90;;;;;;5035850;28;20229;-83
2023/03/12 03:24:04;;;;;;;1.63;1.52;;;1.30;99.90;;;;;;5035945;28;20226;-83
2023/03/12 03:26:32;;;;;;;1.70;1.60;;;1.30;99.90;;;;;;5035999;28;20249;-82
2023/03/12 03:29:01;;;;;;;4.72;1.38;;;1.30;99.90;;;;;;5035116;28;20222;-82
2023/03/12 03:31:30;;;;;;;1.40;1.30;;;1.30;99.90;;;;;;5036149;28;20238;-82
2023/03/12 03:33:59;;;;;;;2.63;2.17;;;1.20;99.90;;;;;;5035854;28;20206;-82
2023/03/12 03:36:27;;;;;;;1.75;1.65;;;1.20;99.90;;;;;;5035536;28;20241;-82
2023/03/12 03:38:55;;;;;;;1.50;1.40;;;1.20;99.90;;;;;;5035014;28;20274;-82
2023/03/12 03:41:24;;;;;;;1.98;1.70;;;1.20;99.90;;;;;;5035730;28;20293;-82
2023/03/12 03:43:57;;;;;;;4.57;1.77;;;1.20;99.90;;;;;;5035384;28;20281;-82
2023/03/12 03:46:26;;;;;;;2.97;1.93;;;1.20;99.90;;;;;;5035602;28;20210;-82
2023/03/12 03:48:56;;;;;;;3.33;1.58;;;1.20;99.90;;;;;;5034726;28;20206;-82
2023/03/12 03:51:24;;;;;;;2.85;2.10;;;1.20;99.90;;;;;;5035055;28;20237;-82
2023/03/12 03:53:52;;;;;;;4.07;1.90;;;1.20;99.90;;;;;;5035504;28;20202;-83
2023/03/12 03:56:21;;;;;;;2.07;1.80;;;1.20;99.90;;;;;;5035533;28;20198;-82
2023/03/12 03:58:49;;;;;;;2.23;1.70;;;1.20;99.90;;;;;;5035102;28;20218;-82
2023/03/12 04:01:18;;;;;;;9.00;2.65;;;1.10;99.90;;;;;;5035175;28;20322;-83
2023/03/12 04:03:46;;;;;;;10.30;1.90;;;1.10;99.90;;;;;;5035225;28;20260;-83
2023/03/12 04:06:16;;;;;;;2.00;1.90;;;1.10;99.90;;;;;;5035047;28;20253;-82
2023/03/12 04:08:45;;;;;;;2.30;1.53;;;1.10;99.90;;;;;;5034743;28;20305;-82
2023/03/12 04:11:15;;;;;;;1.35;1.25;;;1.10;99.90;;;;;;5035226;28;20222;-83
2023/03/12 04:13:44;;;;;;;2.10;1.75;;;1.10;99.90;;;;;;5034817;28;20293;-82
2023/03/12 04:16:14;;;;;;;5.27;2.23;;;1.10;99.90;;;;;;5034870;28;20234;-83
2023/03/12 04:18:43;;;;;;;3.58;2.10;;;1.10;99.90;;;;;;5034321;28;20203;-82
2023/03/12 04:21:13;;;;;;;3.17;2.05;;;1.10;99.90;;;;;;5034677;28;20279;-82
2023/03/12 04:23:43;;;;;;;2.05;1.85;;;1.10;99.90;;;;;;5035079;28;20228;-82
2023/03/12 04:26:11;;;;;;;2.07;1.97;;;1.10;99.90;;;;;;5034804;28;20207;-82
2023/03/12 04:28:40;;;;;;;2.50;2.03;;;1.10;99.90;;;;;;5033170;28;20285;-82
2023/03/12 04:31:10;;;;;;;3.33;2.30;;;1.10;99.90;;;;;;5034580;28;20234;-83
2023/03/12 04:33:40;;;;;;;1.53;1.43;;;1.10;99.90;;;;;;5034428;28;20207;-81
2023/03/12 04:36:09;;;;;;;2.45;2.25;;;1.10;99.90;;;;;;5034903;28;20241;-82
2023/03/12 04:38:37;;;;;;;2.67;2.28;;;1.00;99.90;;;;;;5034333;28;20212;-82
2023/03/12 04:41:10;;;;;;;2.05;1.83;;;1.00;99.90;;;;;;5034562;28;20360;-82
2023/03/12 04:43:39;;;;;;;1.33;1.33;;;1.00;99.90;;;;;;5034323;28;20226;-82
2023/03/12 04:46:07;;;;;;;1.97;1.77;;;1.00;99.90;;;;;;5034450;28;20210;-82
2023/03/12 04:48:36;;;;;;;1.53;1.43;;;1.00;99.90;;;;;;5034218;28;20213;-82
2023/03/12 04:51:06;;;;;;;1.73;1.63;;;0.90;99.90;;;;;;5034352;28;20261;-82
2023/03/12 04:53:34;;;;;;;2.30;2.13;;;1.00;99.90;;;;;;5034185;28;20238;-82
2023/03/12 04:56:03;;;;;;;12.30;2.00;;;1.00;99.90;;;;;;5034101;28;20211;-82
2023/03/12 04:58:33;;;;;;;2.33;1.73;;;1.00;99.90;;;;;;5033856;28;20242;-83
2023/03/12 05:01:04;;;;;;;1.98;1.75;;;1.00;99.90;;;;;;5034142;28;20223;-82
2023/03/12 05:03:33;;;;;;;2.03;1.80;;;1.00;99.90;;;;;;5034188;28;20229;-82
2023/03/12 05:06:01;;;;;;;1.77;1.67;;;0.90;99.90;;;;;;5034101;28;20217;-82
2023/03/12 05:08:29;;;;;;;1.42;1.33;;;0.90;99.90;;;;;;5033611;28;20209;-82
2023/03/12 05:10:57;;;;;;;1.77;1.33;;;0.90;99.90;;;;;;5034249;28;20257;-82
2023/03/12 05:13:26;;;;;;;2.42;1.73;;;0.90;99.90;;;;;;5033846;28;20298;-82
2023/03/12 05:15:55;;;;;;;1.97;1.77;;;0.90;99.90;;;;;;5033846;28;20297;-82
2023/03/12 05:18:25;;;;;;;2.77;1.73;;;0.90;99.90;;;;;;5033709;28;20320;-82
2023/03/12 05:20:59;;;;;;;3.17;1.97;;;0.80;99.90;;;;;;5034070;28;20309;-82
2023/03/12 05:23:28;;;;;;;8.57;2.40;;;0.80;99.90;;;;;;5033851;28;20308;-82
2023/03/12 05:25:57;;;;;;;2.70;1.90;;;0.80;99.90;;;;;;5033645;28;20229;-82
2023/03/12 05:28:27;;;;;;;2.83;2.10;;;0.90;99.90;;;;;;5033472;28;20305;-82
2023/03/12 05:30:58;;;;;;;2.47;2.10;;;0.90;99.90;;;;;;5033713;28;20226;-82
2023/03/12 05:33:28;;;;;;;2.10;1.90;;;0.90;99.90;;;;;;5033979;28;20209;-82
2023/03/12 05:35:56;;;;;;;1.80;1.70;;;0.90;99.90;;;;;;5033215;28;20262;-82
2023/03/12 05:38:25;;;;;;;3.65;2.63;;;0.90;99.90;;;;;;5032635;28;20221;-82
2023/03/12 05:40:54;;;;;;;1.80;1.60;;;0.90;99.90;;;;;;5033378;28;20280;-82
2023/03/12 05:43:23;;;;;;;6.77;2.30;;;0.80;99.90;;;;;;5032914;28;20207;-82
2023/03/12 05:45:58;;;;;;;1.47;1.37;;;0.70;99.90;;;;;;5033689;28;20261;-83
2023/03/12 05:48:28;;;;;;;3.22;2.13;;;0.70;99.90;;;;;;5032712;28;20205;-82
2023/03/12 05:50:56;;;;;;;1.90;1.70;;;0.60;99.90;;;;;;5033294;28;20337;-81
2023/03/12 05:53:24;;;;;;;1.47;1.37;;;0.60;99.90;;;;;;5033284;28;20213;-82
2023/03/12 05:55:53;;;;;;;1.73;1.63;;;0.60;99.90;;;;;;5032847;28;20210;-82
2023/03/12 05:58:21;;;;;;;5.03;2.40;;;0.70;99.90;;;;;;5033126;28;20233;-82
2023/03/12 06:00:50;;;;;;;1.83;1.73;;;0.70;99.90;;;;;;5033372;28;20230;-82
2023/03/12 06:03:18;;;;;;;3.05;2.03;;;0.70;99.90;;;;;;5032917;28;20305;-82
2023/03/12 06:05:48;;;;;;;2.07;1.87;;;0.80;99.90;;;;;;5033009;28;20214;-82
2023/03/12 06:08:16;;;;;;;2.00;1.73;;;0.80;99.90;;;;;;5032721;28;20206;-82
2023/03/12 06:10:44;;;;;;;2.10;1.93;;;0.90;99.90;;;;;;5032892;28;20337;-82
2023/03/12 06:13:13;;;;;;;1.70;1.60;;;0.90;99.90;;;;;;5032687;28;20245;-83
2023/03/12 06:15:41;;;;;;;2.33;1.77;;;0.90;99.90;;;;;;5032951;28;20214;-82
2023/03/12 06:18:09;;;;;;;1.60;1.50;;;1.00;99.90;;;;;;5032093;28;20237;-83
2023/03/12 06:20:38;;;;;;;2.70;1.90;;;0.90;99.90;;;;;;5032691;28;20223;-83
2023/03/12 06:23:08;;;;;;;1.60;1.50;;;1.00;99.90;;;;;;5032572;28;20233;-82
2023/03/12 06:25:36;;;;;;;2.50;2.00;;;1.00;99.90;;;;;;5032643;28;20260;-82
2023/03/12 06:28:04;;;;;;;1.88;1.77;;;1.00;99.90;;;;;;5032043;28;20221;-83
2023/03/12 06:30:33;;;;;;;1.50;1.40;;;1.10;99.90;;;;;;5032657;28;20277;-82
2023/03/12 06:33:02;;;;;;;2.33;1.63;;;1.10;99.90;;;;;;5032771;28;20301;-83
2023/03/12 06:35:31;;;;;;;2.13;1.92;;;1.10;99.90;;;;;;5032575;28;20294;-83
2023/03/12 06:37:59;;;;;;;2.50;1.47;;;1.20;99.90;;;;;;5032603;28;20329;-82
2023/03/12 06:40:29;;;;;;;2.00;1.80;;;1.20;99.90;;;;;;5032799;28;20253;-82
2023/03/12 06:42:57;;;;;;;1.77;1.67;;;1.30;99.90;;;;;;5032719;28;20202;-82
2023/03/12 06:45:26;;;;;;;1.60;1.42;;;1.40;99.90;;;;;;5032631;28;20222;-83
2023/03/12 06:47:54;;;;;;;1.93;1.47;;;1.40;99.90;;;;;;5031667;28;20233;-82
2023/03/12 06:50:25;;;;;;;2.00;1.75;;;1.40;99.90;;;;;;5032817;28;20314;-82
2023/03/12 06:52:53;;;;;;;1.67;1.58;;;1.50;99.90;;;;;;5036925;28;20238;-83
2023/03/12 06:55:21;;;;;;;2.33;1.90;;;1.60;99.90;;;;;;5036472;28;20403;-83
2023/03/12 06:57:51;;;;;;;1.73;1.63;;;1.60;99.90;;;;;;5036298;28;20236;-83
2023/03/12 07:00:20;;;;;;;1.70;1.60;;;1.80;99.90;;;;;;5036565;28;20225;-82
2023/03/12 07:02:49;;;;;;;1.27;1.17;;;1.90;99.90;;;;;;5036614;28;20242;-82
2023/03/12 07:05:17;;;;;;;2.05;1.83;;;2.00;99.90;;;;;;5036296;28;20222;-83
2023/03/12 07:07:45;;;;;;;2.53;1.45;;;2.10;99.90;;;;;;5035763;28;20211;-82
2023/03/12 07:10:14;;;;;;;1.00;0.93;;;2.20;99.90;;;;;;5036317;28;20236;-83
2023/03/12 07:12:42;;;;;;;1.23;1.17;;;2.30;99.90;;;;;;5036000;28;20206;-83
2023/03/12 07:15:12;;;;;;;1.88;1.70;;;2.40;99.90;;;;;;5035873;28;20271;-83
2023/03/12 07:17:40;;;;;;;1.40;1.30;;;2.50;99.90;;;;;;5036023;28;20293;-83
2023/03/12 07:20:10;;;;;;;1.20;1.15;;;2.50;99.90;;;;;;5036359;28;20254;-83
2023/03/12 07:22:38;;;;;;;1.50;1.30;;;2.60;99.90;;;;;;5036101;28;20210;-83
2023/03/12 07:25:07;;;;;;;2.53;1.90;;;2.80;99.90;;;;;;5036331;28;20229;-83
2023/03/12 07:27:35;;;;;;;0.98;0.88;;;2.80;99.90;;;;;;5035515;28;20211;-82
2023/03/12 07:30:05;;;;;;;1.42;1.33;;;2.90;99.90;;;;;;5036047;28;20290;-82
2023/03/12 07:32:35;;;;;;;1.60;1.50;;;2.90;99.90;;;;;;5035727;28;20266;-83
2023/03/12 07:35:04;;;;;;;1.50;1.40;;;2.90;99.90;;;;;;5035673;28;20203;-83
2023/03/12 07:37:32;;;;;;;1.33;1.23;;;3.00;99.90;;;;;;5035210;28;20226;-82
2023/03/12 07:40:00;;;;;;;2.05;1.42;;;3.00;99.90;;;;;;5035519;28;20257;-82
2023/03/12 07:42:29;;;;;;;1.20;1.13;;;3.10;99.90;;;;;;5035601;28;20230;-83
2023/03/12 07:44:57;;;;;;;1.50;1.40;;;3.30;99.90;;;;;;5035491;28;20237;-83
2023/03/12 07:47:26;;;;;;;1.75;1.40;;;3.30;99.90;;;;;;5035097;28;20230;-82
2023/03/12 07:49:56;;;;;;;1.10;1.10;;;3.40;99.90;;;;;;5035424;28;20284;-83
2023/03/12 07:52:24;;;;;;;1.45;1.35;;;3.50;99.90;;;;;;5035385;28;20206;-83
2023/03/12 07:54:55;;;;;;;2.13;1.58;;;3.60;99.90;;;;;;5035744;28;20207;-81
2023/03/12 07:57:23;;;;;;;1.30;1.20;;;3.70;99.90;;;;;;5035241;28;20198;-81
2023/03/12 07:59:52;;;;;;;1.30;1.20;;;3.70;99.90;;;;;;5035705;28;20255;-82
2023/03/12 08:02:20;;;;;;;9.43;1.60;;;3.80;99.90;;;;;;5035405;28;20221;-82
2023/03/12 08:04:48;;;;;;;1.65;1.45;;;3.80;99.90;;;;;;5035322;28;20249;-82
2023/03/12 08:07:18;;;;;;;1.10;1.00;;;3.80;99.90;;;;;;5034574;28;20220;-82
2023/03/12 08:09:48;;;;;;;1.17;1.13;;;3.90;99.90;;;;;;5035272;28;20226;-82
2023/03/12 08:12:18;;;;;;;1.30;1.20;;;4.00;99.90;;;;;;5035095;28;20202;-82
2023/03/12 08:14:46;;;;;;;1.58;1.48;;;4.10;99.90;;;;;;5034963;28;20210;-81
2023/03/12 08:17:14;;;;;;;1.45;1.35;;;4.20;99.90;;;;;;5034534;28;20214;-81
2023/03/12 08:19:43;;;;;;;1.52;0.98;;;4.20;99.90;;;;;;5034766;28;20226;-82
2023/03/12 08:22:11;;;;;;;1.00;1.00;;;4.30;99.90;;;;;;5035162;28;20206;-81
2023/03/12 08:24:41;;;;;;;0.98;0.98;;;4.40;99.90;;;;;;5034861;28;20293;-81
2023/03/12 08:27:11;;;;;;;1.90;1.50;;;4.50;99.90;;;;;;5034415;28;20232;-83
2023/03/12 08:29:39;;;;;;;1.00;0.98;;;4.60;99.90;;;;;;5034636;28;20298;-82
2023/03/12 08:32:09;;;;;;;1.45;1.08;;;4.70;99.60;;;;;;5034515;28;20235;-82
2023/03/12 08:34:38;;;;;;;1.65;1.05;;;4.80;99.40;;;;;;5035092;28;20206;-82
2023/03/12 08:37:06;;;;;;;1.20;1.05;;;4.80;99.10;;;;;;5034196;28;20229;-82
2023/03/12 08:39:35;;;;;;;3.85;1.70;;;4.90;98.90;;;;;;5034822;28;20313;-82
2023/03/12 08:42:06;;;;;;;1.38;1.27;;;5.00;98.30;;;;;;5034720;28;20245;-82
2023/03/12 08:44:35;;;;;;;4.22;1.70;;;5.20;98.00;;;;;;5034175;28;20206;-82
2023/03/12 08:47:03;;;;;;;1.23;1.05;;;5.30;97.90;;;;;;5033541;28;20305;-82
2023/03/12 08:49:31;;;;;;;3.25;1.20;;;5.30;96.50;;;;;;5034291;28;20309;-81
2023/03/12 08:52:00;;;;;;;1.25;1.15;;;5.50;97.10;;;;;;5034407;28;20234;-81
2023/03/12 08:54:28;;;;;;;1.52;1.40;;;5.60;95.70;;;;;;5034414;28;20210;-82
2023/03/12 08:56:57;;;;;;;0.70;0.70;;;5.70;95.60;;;;;;5033894;28;20286;-82
2023/03/12 08:59:27;;;;;;;1.85;1.17;;;5.90;94.40;;;;;;5034167;28;20231;-82
2023/03/12 09:01:57;;;;;;;3.00;1.23;;;6.10;93.80;;;;;;5034467;28;20202;-81
2023/03/12 09:04:26;;;;;;;3.85;1.10;;;6.20;93.80;;;;;;5034330;28;20228;-81
2023/03/12 09:06:54;;;;;;;2.97;1.33;;;6.50;92.80;;;;;;5033512;28;20234;-81
2023/03/12 09:09:22;;;;;;;0.93;0.93;;;6.50;93.50;;;;;;5034273;28;20317;-82
2023/03/12 09:11:50;;;;;;;1.27;1.13;;;6.70;92.20;;;;;;5034579;28;20237;-81
2023/03/12 09:14:19;;;;;;;1.13;1.00;;;6.90;92.20;;;;;;5033000;28;20195;-82
2023/03/12 09:17:08;;;;;;;;;;;7.40;92.10;;;;;;5033624;28;20099;-83
2023/03/12 09:19:36;;;;;;;;;;;8.30;90.60;;;;;;5034388;28;19989;-82
2023/03/12 09:22:04;;;;;;;;;;;8.90;88.00;;;;;;5034022;28;19980;-82
2023/03/12 09:24:33;;;;;;;2.88;1.58;;;9.30;86.30;;;;;;5033808;28;20225;-82
2023/03/12 09:27:01;;;;;;;;;;;9.20;85.70;;;;;;5033316;28;20119;-82
2023/03/12 09:29:29;;;;;;;;;;;9.50;84.30;;;;;;5034054;28;20020;-82
2023/03/12 09:31:57;;;;;;;;;;;9.80;81.80;;;;;;5034294;28;19978;-82
2023/03/12 09:34:27;;;;;;;;;;;9.90;82.20;;;;;;5034126;28;20047;-82
2023/03/12 09:36:55;;;;;;;;;;;10.20;79.50;;;;;;5033777;28;19966;-82
2023/03/12 09:39:24;;;;;;;;;;;10.50;76.60;;;;;;5033592;28;20038;-83
2023/03/12 09:41:52;;;;;;;;;;;10.60;77.00;;;;;;5034006;28;20020;-83
2023/03/12 09:44:22;;;;;;;;;;;10.50;75.40;;;;;;5033765;28;20046;-81
2023/03/12 09:46:52;;;;;;;;;;;10.40;75.70;;;;;;5033345;28;20010;-81
2023/03/12 09:49:26;;;;;;;;;;;10.60;74.90;;;;;;5033320;28;19970;-81
2023/03/12 09:51:57;;;;;;;;;;;10.80;75.00;;;;;;5033927;28;19965;-83
2023/03/12 09:54:28;;;;;;;;;;;10.80;72.60;;;;;;5033812;28;20042;-83
2023/03/12 09:56:58;;;;;;;;;;;10.80;74.20;;;;;;5033298;28;20042;-83
2023/03/12 09:59:26;;;;;;;;;;;11.10;74.20;;;;;;5033604;28;19997;-83
2023/03/12 10:01:58;;;;;;;1.70;1.60;;;11.20;70.90;;;;;;5033202;28;20229;-83
2023/03/12 10:04:37;;;;;;;1.30;1.27;;;10.60;71.50;;;;;;5033180;28;20316;-83
2023/03/12 10:07:31;;;;;;;;;;;10.60;72.10;;;;;;5032741;28;20086;-81
2023/03/12 10:10:15;;;;;;;1.60;1.50;;;10.50;73.40;;;;;;5032612;28;20200;-83
2023/03/12 10:12:47;;;;;;;;;;;10.10;71.70;;;;;;5033231;28;20094;-83
2023/03/12 10:15:22;;;;;;;;;;;10.20;73.30;;;;;;5033257;28;19968;-83
2023/03/12 10:17:57;;;;;;;;;;;10.30;73.40;;;;;;5032884;28;19946;-83
2023/03/12 10:20:42;;;;;;;;;;;10.60;71.20;;;;;;5032906;28;20012;-81
2023/03/12 10:23:14;;;;;;;;;;;10.40;70.70;;;;;;5032456;28;20053;-81
2023/03/12 10:25:45;;;;;;;;;;;10.60;73.20;;;;;;5032464;28;20030;-81
2023/03/12 10:28:16;;;;;;;;;;;10.80;71.60;;;;;;5032594;28;19985;-83
2023/03/12 10:30:48;;;;;;;;;;;11.00;70.90;;;;;;5032729;28;20034;-83
2023/03/12 10:33:18;;;;;;;;;;;11.30;70.10;;;;;;5033459;28;19952;-83
2023/03/12 10:35:47;;;;;;;3.42;1.80;;;11.30;69.90;;;;;;5033321;28;19995;-83
2023/03/12 10:38:21;;;;;;;;;;;11.00;71.00;;;;;;5032879;28;20071;-81
2023/03/12 10:40:50;;;;;;;;;;;11.10;69.80;;;;;;5033144;28;19962;-81
2023/03/12 10:43:18;;;;;;;;;;;11.20;69.20;;;;;;5032669;28;19952;-81
2023/03/12 10:45:52;;;;;;;;;;;11.30;69.90;;;;;;5032910;28;19990;-81
2023/03/12 10:48:21;;;;;;;;;;;11.30;69.60;;;;;;5032402;28;20045;-81
2023/03/12 10:51:00;;;;;;;;;;;11.10;71.40;;;;;;5032840;28;20055;-81
2023/03/12 10:53:31;;;;;;;;;;;11.20;70.70;;;;;;5033030;28;20036;-81
2023/03/12 10:56:00;;;;;;;;;;;11.60;69.90;;;;;;5032848;28;19946;-81
2023/03/12 10:58:32;;;;;;;;;;;12.30;68.20;;;;;;5032109;28;19963;-81
2023/03/12 11:01:01;;;;;;;;;;;12.70;68.10;;;;;;5032753;28;20005;-80
2023/03/12 11:03:29;;;;;;;;;;;12.80;67.50;;;;;;5032764;28;19943;-81
2023/03/12 11:05:58;;;;;;;;;;;13.00;67.40;;;;;;5033018;28;20005;-80
2023/03/12 11:08:28;;;;;;;;;;;13.20;66.30;;;;;;5031777;28;20002;-81
2023/03/12 11:10:58;;;;;;;;;;;13.30;65.80;;;;;;5032362;28;20021;-80
2023/03/12 11:13:28;;;;;;;;;;;13.00;65.30;;;;;;5032862;28;19993;-80
2023/03/12 11:15:57;;;;;;;;;;;12.90;64.80;;;;;;5032597;28;19963;-80
2023/03/12 11:18:27;;;;;;;;;;;12.40;66.30;;;;;;5032361;28;19943;-80
2023/03/12 11:20:56;;;;;;;;;;;12.60;67.20;;;;;;5033111;28;19925;-80
2023/03/12 11:23:27;;;;;;;;;;;12.80;66.10;;;;;;5032763;28;20007;-80
2023/03/12 11:25:58;;;;;;;;;;;13.30;65.80;;;;;;5032724;28;19941;-80
2023/03/12 11:28:30;;;;;;;;;;;13.50;65.20;;;;;;5031764;28;20011;-81
2023/03/12 11:31:00;;;;;;;;;;;13.80;65.60;;;;;;5032858;28;19994;-81
2023/03/12 11:33:28;;;;;;;;;;;14.20;63.30;;;;;;5032543;28;19951;-80
2023/03/12 11:36:12;;;;;;;;;;;14.30;62.40;;;;;;5032402;28;20013;-80
2023/03/12 11:38:43;;;;;;;;;;;14.10;61.20;;;;;;5036006;28;19944;-80
2023/03/12 11:41:21;;;;;;;;;;;13.40;60.60;;;;;;5036211;28;19994;-80
2023/03/12 11:44:01;;;;;;;;;;;12.70;61.90;;;;;;5036072;28;19962;-80
2023/03/12 11:46:39;;;;;;;;;;;12.40;62.00;;;;;;5035872;28;19968;-80
2023/03/12 11:49:14;;;;;;;;;;;12.10;62.90;;;;;;5035689;28;19952;-80
2023/03/12 11:51:46;;;;;;;;;;;11.70;63.00;;;;;;5035895;28;19941;-80
2023/03/12 11:54:27;;;;;;;;;;;11.50;64.10;;;;;;5035802;28;19982;-80
2023/03/12 11:56:59;;;;;;;;;;;11.20;64.20;;;;;;5035520;28;20041;-80
2023/03/12 11:59:35;;;;;;;;;;;11.30;64.60;;;;;;5036100;28;20043;-80
2023/03/12 12:02:11;;;;;;;;;;;11.00;65.80;;;;;;5035953;28;19947;-80
2023/03/12 12:05:00;;;;;;;;;;;11.30;65.90;;;;;;5035294;28;19940;-80
2023/03/12 12:07:35;;;;;;;;;;;11.50;65.50;;;;;;5034745;28;19962;-80
2023/03/12 12:10:09;;;;;;;;;;;11.50;65.40;;;;;;5035625;28;20025;-80
2023/03/12 12:12:46;;;;;;;;;;;11.60;65.80;;;;;;5035645;28;20025;-80
2023/03/12 12:15:19;;;;;;;;;;;11.90;66.10;;;;;;5035094;28;19949;-79
2023/03/12 12:17:54;;;;;;;;;;;12.00;65.70;;;;;;5035028;28;19943;-80
2023/03/12 12:20:27;;;;;;;;;;;12.30;66.70;;;;;;5035420;28;20057;-80
2023/03/12 12:23:00;;;;;;;;;;;12.30;64.70;;;;;;5035745;28;20000;-80
2023/03/12 12:25:34;;;;;;;;;;;12.30;65.20;;;;;;5035313;28;19941;-80
2023/03/12 12:28:13;;;;;;;;;;;12.30;64.70;;;;;;5034638;28;19960;-80
2023/03/12 12:30:49;;;;;;;;;;;12.20;64.50;;;;;;5035416;28;19955;-81
2023/03/12 12:33:26;;;;;;;;;;;12.40;64.50;;;;;;5035057;28;19990;-81
2023/03/12 12:35:54;;;;;;;;;;;12.00;65.10;;;;;;5035473;28;20038;-80
2023/03/12 12:38:28;;;;;;;;;;;12.20;64.40;;;;;;5034941;28;19943;-79
2023/03/12 12:41:01;;;;;;;;;;;12.00;64.70;;;;;;5035312;28;19967;-80
2023/03/12 12:43:34;;;;;;;;;;;11.70;64.70;;;;;;5034882;28;20033;-80
2023/03/12 12:46:04;;;;;;;;;;;11.40;64.50;;;;;;5034755;28;20026;-80
2023/03/12 12:48:33;;;;;;;;;;;11.30;65.40;;;;;;5033038;28;20008;-80
2023/03/12 12:51:03;;;;;;;;;;;11.30;66.00;;;;;;5035000;28;20068;-80
2023/03/12 12:53:37;;;;;;;;;;;11.50;66.00;;;;;;5035011;28;19997;-80
2023/03/12 12:56:10;;;;;;;;;;;11.60;66.40;;;;;;5034770;28;19951;-80
2023/03/12 12:59:02;;;;;;;;;;;11.60;66.10;;;;;;5034147;28;20001;-80
2023/03/12 13:01:30;;;;;;;;;;;11.60;66.00;;;;;;5034483;28;19940;-80
2023/03/12 13:04:02;;;;;;;;;;;11.50;65.90;;;;;;5034906;28;19941;-80
2023/03/12 13:06:53;;;;;;;;;;;11.60;66.10;;;;;;5034567;28;19994;-80
2023/03/12 13:09:22;;;;;;;;;;;11.40;65.20;;;;;;5034437;28;19961;-79
2023/03/12 13:11:50;;;;;;;;;;;11.20;65.40;;;;;;5034515;28;20042;-79
2023/03/12 13:14:35;;;;;;;;;;;11.10;65.30;;;;;;5034473;28;19946;-80
2023/03/12 13:17:07;;;;;;;;;;;11.10;65.20;;;;;;5033837;28;20049;-80
2023/03/12 13:19:40;;;;;;;;;;;11.00;64.90;;;;;;5034150;28;20054;-81
2023/03/12 13:22:21;;;;;;;4.10;3.13;;;10.80;64.80;;;;;;5033858;28;20194;-81
2023/03/12 13:24:57;;;;;;;2.55;2.35;;;10.60;65.20;;;;;;5033899;28;20244;-81
2023/03/12 13:27:30;;;;;;;3.33;2.35;;;10.50;64.80;;;;;;5033223;28;20202;-81
2023/03/12 13:30:40;;;;;;;5.82;2.35;;;10.40;64.80;;;;;;5033609;28;20234;-81
2023/03/12 13:33:12;;;;;;;2.03;1.92;;;10.50;65.00;;;;;;5033619;28;20297;-81
2023/03/12 13:35:41;;;;;;;2.40;2.08;;;10.50;64.40;;;;;;5033780;28;20206;-81